Aviation Digital Data Service (ADDS)

Output produced by TAFs form (1738 UTC 21 April 2018)
found at http://aviationweather.gov/adds/tafs/
 
RJFT 211200Z VRB02KT CAVOK 18/14 Q1021
TAF RJFT 211710Z 2118/2300 06005KT 8000 FEW015 
     BECMG 2120/2122 23005KT 
     BECMG 2209/2212 07004KT